Time;durP1;ratioP1;P1;durP2;ratioP2;P2;SDS_P1;SDS_P2;PMS_P1;PMS_P2;Temp;Humidity;BMP_temperature;BMP_pressure;BME280_temperature;BME280_humidity;BME280_pressure;Samples;Min_cycle;Max_cycle;Signal;HPM_P1;HPM_P2
2024/01/18 00:00:30;;;;;;;;;;;;;;;4.04;77.93;98511.97;5370952;32;34987;-77
2024/01/18 00:03:33;;;;;;;;;;;;;;;3.07;81.84;98510.75;5352406;32;34856;-73
2024/01/18 00:06:35;;;;;;;;;;;;;;;4.68;75.12;98497.06;5355475;32;35422;-75
2024/01/18 00:09:37;;;;;;;;;;;;;;;4.03;76.15;98496.47;5357336;32;35984;-76
2024/01/18 00:12:41;;;;;;;;;;;;;;;3.26;79.54;98484.03;5358061;32;34747;-68
2024/01/18 00:15:44;;;;;;;;;;;;;;;3.51;79.79;98483.03;5370575;32;36142;-67
2024/01/18 00:18:46;;;;;;;;;;;;;;;3.99;78.90;98487.09;5364290;32;35062;-76
2024/01/18 00:21:48;;;;;;;;;;;;;;;4.37;76.32;98479.38;5368256;32;35234;-76
2024/01/18 00:24:50;;;;;;;;;;;;;;;3.61;79.24;98476.56;5354999;32;34731;-76
2024/01/18 00:27:53;;;;;;;;;;;;;;;3.87;78.14;98472.88;5358876;32;34932;-69
2024/01/18 00:30:55;;;;;;;;;;;;;;;4.09;78.20;98478.00;5367427;32;35558;-67
2024/01/18 00:33:58;;;;;;;;;;;;;;;4.74;75.38;98466.41;5370194;32;35370;-67
2024/01/18 00:37:00;;;;;;;;;;;;;;;4.29;77.04;98461.53;5357001;32;35561;-75
2024/01/18 00:40:03;;;;;;;;;;;;;;;5.47;72.90;98461.22;5367925;32;35121;-66
2024/01/18 00:43:05;;;;;;;;;;;;;;;4.67;74.03;98459.81;5367397;32;34823;-76
2024/01/18 00:46:07;;;;;;;;;;;;;;;5.28;72.03;98459.53;5362699;32;35016;-66
2024/01/18 00:49:09;;;;;;;;;;;;;;;3.35;79.05;98455.97;5372517;32;34888;-75
2024/01/18 00:52:37;;;;;;;;;;;;;;;4.66;75.38;98460.72;5354672;32;34232;-66
2024/01/18 00:55:42;;;;;;;;;;;;;;;4.88;74.45;98453.59;5334142;32;33396;-66
2024/01/18 00:58:44;;;;;;;;;;;;;;;4.31;75.12;98452.72;5336304;32;37144;-74
2024/01/18 01:01:47;;;;;;;;;;;;;;;4.68;75.16;98438.06;5345393;32;35510;-75
2024/01/18 01:04:49;;;;;;;;;;;;;;;5.09;72.93;98441.34;5347700;32;35443;-67
2024/01/18 01:07:51;;;;;;;;;;;;;;;4.52;75.03;98439.69;5333654;32;35294;-66
2024/01/18 01:10:53;;;;;;;;;;;;;;;5.12;73.92;98428.16;5348499;32;34917;-67
2024/01/18 01:13:55;;;;;;;;;;;;;;;4.88;73.88;98424.97;5352749;32;35331;-68
2024/01/18 01:16:58;;;;;;;;;;;;;;;4.76;74.50;98420.34;5322465;32;34786;-66
2024/01/18 01:20:00;;;;;;;;;;;;;;;5.02;73.25;98411.28;5348232;32;35030;-76
2024/01/18 01:23:41;;;;;;;;;;;;;;;;;;;;;
2024/01/18 01:27:02;;;;;;;;;;;;;;;4.60;74.84;98401.16;5342464;32;35819;-77
2024/01/18 01:30:12;;;;;;;;;;;;;;;5.37;72.63;98413.97;5339829;32;33830;-67
2024/01/18 01:33:34;;;;;;;;;;;;;;;4.58;74.35;98400.41;5346241;32;36821;-76
2024/01/18 01:36:36;;;;;;;;;;;;;;;4.54;76.22;98389.28;5339932;32;34801;-66
2024/01/18 01:39:39;;;;;;;;;;;;;;;5.14;73.81;98381.22;5347483;32;35110;-76
2024/01/18 01:42:41;;;;;;;;;;;;;;;4.81;73.35;98375.88;5350987;32;34856;-77
2024/01/18 01:45:48;;;;;;;;;;;;;;;4.54;74.70;98370.22;5345539;32;34931;-76
2024/01/18 01:48:51;;;;;;;;;;;;;;;4.77;73.71;98364.78;5348752;32;34294;-75
2024/01/18 01:51:54;;;;;;;;;;;;;;;4.63;74.97;98356.78;5361873;32;34930;-66
2024/01/18 01:54:56;;;;;;;;;;;;;;;4.94;73.83;98347.50;5369341;32;34645;-74
2024/01/18 01:57:58;;;;;;;;;;;;;;;5.43;72.50;98331.13;5358959;32;34765;-76
2024/01/18 02:01:00;;;;;;;;;;;;;;;5.48;72.34;98338.72;5328878;32;847864;-67
2024/01/18 02:04:03;;;;;;;;;;;;;;;4.93;72.77;98331.03;5355776;32;34935;-68
2024/01/18 02:07:05;;;;;;;;;;;;;;;5.39;71.53;98319.16;5358062;32;34854;-67
2024/01/18 02:10:08;;;;;;;;;;;;;;;5.12;72.14;98326.63;5355619;32;34901;-67
2024/01/18 02:13:10;;;;;;;;;;;;;;;4.94;72.65;98334.47;5363018;32;34673;-67
2024/01/18 02:16:13;;;;;;;;;;;;;;;5.21;72.85;98327.91;5368736;32;35310;-66
2024/01/18 02:19:15;;;;;;;;;;;;;;;5.44;70.57;98322.38;5359466;32;35391;-74
2024/01/18 02:22:18;;;;;;;;;;;;;;;5.66;70.72;98310.84;5367748;32;34936;-67
2024/01/18 02:25:27;;;;;;;;;;;;;;;5.26;71.93;98312.06;5354712;32;34719;-66
2024/01/18 02:28:29;;;;;;;;;;;;;;;5.43;71.67;98297.25;5372631;32;35413;-66
2024/01/18 02:31:32;;;;;;;;;;;;;;;5.31;72.64;98292.66;5357286;32;34963;-77
2024/01/18 02:34:38;;;;;;;;;;;;;;;5.74;71.13;98298.28;5373676;32;34412;-66
2024/01/18 02:37:41;;;;;;;;;;;;;;;6.19;68.61;98288.94;5358032;32;34554;-76
2024/01/18 02:40:43;;;;;;;;;;;;;;;5.87;68.96;98282.84;5359680;32;34812;-68
2024/01/18 02:43:45;;;;;;;;;;;;;;;5.52;70.27;98287.28;5354302;32;34835;-76
2024/01/18 02:46:47;;;;;;;;;;;;;;;5.33;71.94;98292.59;5369698;32;35507;-77
2024/01/18 02:49:50;;;;;;;;;;;;;;;5.27;72.00;98291.13;5359614;32;34889;-74
2024/01/18 02:52:52;;;;;;;;;;;;;;;5.32;72.25;98294.34;5370697;32;34971;-76
2024/01/18 02:55:54;;;;;;;;;;;;;;;6.23;68.30;98277.41;5359401;32;34635;-68
2024/01/18 02:58:56;;;;;;;;;;;;;;;6.37;67.33;98261.81;5353240;32;35415;-76
2024/01/18 03:01:58;;;;;;;;;;;;;;;5.96;70.10;98264.94;5374346;32;34412;-77
2024/01/18 03:05:01;;;;;;;;;;;;;;;5.84;70.46;98264.72;5368795;32;34995;-73
2024/01/18 03:08:03;;;;;;;;;;;;;;;6.24;69.62;98263.44;5371374;32;34826;-77
2024/01/18 03:11:05;;;;;;;;;;;;;;;7.03;72.49;98258.94;5369806;32;34437;-66
2024/01/18 03:14:08;;;;;;;;;;;;;;;6.78;73.64;98263.87;5369915;32;34425;-67
2024/01/18 03:17:10;;;;;;;;;;;;;;;6.84;74.30;98263.53;5373430;32;34962;-66
2024/01/18 03:20:12;;;;;;;;;;;;;;;7.25;73.65;98263.72;5365375;32;35624;-67
2024/01/18 03:23:15;;;;;;;;;;;;;;;6.52;75.13;98260.16;5358808;32;34645;-76
2024/01/18 03:26:17;;;;;;;;;;;;;;;7.11;75.45;98260.25;5369173;32;34727;-68
2024/01/18 03:29:20;;;;;;;;;;;;;;;7.16;75.72;98253.81;5368037;32;35907;-77
2024/01/18 03:32:24;;;;;;;;;;;;;;;7.37;75.74;98250.88;5359445;32;34377;-68
2024/01/18 03:35:26;;;;;;;;;;;;;;;7.99;73.85;98248.81;5368183;32;35085;-77
2024/01/18 03:38:28;;;;;;;;;;;;;;;7.38;74.47;98245.53;5373412;32;33951;-77
2024/01/18 03:41:30;;;;;;;;;;;;;;;7.28;77.06;98252.25;5355770;32;34782;-76
2024/01/18 03:44:33;;;;;;;;;;;;;;;7.71;75.37;98249.66;5359456;32;34742;-68
2024/01/18 03:47:35;;;;;;;;;;;;;;;7.24;77.71;98248.97;5368940;32;34935;-68
2024/01/18 03:50:37;;;;;;;;;;;;;;;7.64;77.93;98238.72;5369105;32;34178;-75
2024/01/18 03:53:41;;;;;;;;;;;;;;;7.88;77.18;98239.00;5371553;32;35403;-76
2024/01/18 03:56:44;;;;;;;;;;;;;;;8.02;76.09;98238.97;5355688;32;35637;-77
2024/01/18 03:59:47;;;;;;;;;;;;;;;8.32;74.11;98241.44;5368664;32;34930;-77
2024/01/18 04:02:49;;;;;;;;;;;;;;;7.85;76.56;98250.47;5372244;32;34423;-75
2024/01/18 04:05:51;;;;;;;;;;;;;;;8.45;74.41;98238.91;5371375;32;35272;-67
2024/01/18 04:08:54;;;;;;;;;;;;;;;8.24;75.10;98243.69;5370493;32;34568;-66
2024/01/18 04:11:56;;;;;;;;;;;;;;;7.67;76.97;98241.19;5369003;32;34847;-76
2024/01/18 04:14:58;;;;;;;;;;;;;;;7.80;75.99;98231.63;5359671;32;34870;-67
2024/01/18 04:18:00;;;;;;;;;;;;;;;7.80;74.24;98229.03;5356075;32;35956;-67
2024/01/18 04:21:03;;;;;;;;;;;;;;;8.11;72.00;98219.22;5371573;32;35167;-76
2024/01/18 04:24:05;;;;;;;;;;;;;;;7.82;71.72;98221.06;5341441;32;35043;-77
2024/01/18 04:27:07;;;;;;;;;;;;;;;7.75;71.37;98218.00;5355147;32;34903;-76
2024/01/18 04:30:10;;;;;;;;;;;;;;;7.20;72.59;98223.13;5370269;32;35572;-76
2024/01/18 04:33:12;;;;;;;;;;;;;;;7.24;72.10;98211.56;5371834;32;36881;-77
2024/01/18 04:36:14;;;;;;;;;;;;;;;7.35;71.54;98198.69;5370575;32;35655;-76
2024/01/18 04:39:17;;;;;;;;;;;;;;;7.92;69.71;98198.66;5367528;32;35047;-66
2024/01/18 04:42:20;;;;;;;;;;;;;;;7.82;69.63;98201.00;5372685;32;35809;-67
2024/01/18 04:45:23;;;;;;;;;;;;;;;7.45;70.22;98191.97;5368400;32;35583;-66
2024/01/18 04:48:25;;;;;;;;;;;;;;;7.39;70.61;98189.72;5370327;32;34665;-75
2024/01/18 04:51:27;;;;;;;;;;;;;;;7.44;71.07;98190.28;5370193;32;35690;-66
2024/01/18 04:54:29;;;;;;;;;;;;;;;7.49;70.21;98190.84;5353501;32;34433;-67
2024/01/18 04:57:32;;;;;;;;;;;;;;;7.47;70.80;98195.34;5359532;32;35486;-76
2024/01/18 05:00:34;;;;;;;;;;;;;;;7.18;71.38;98191.88;5368100;32;35024;-75
2024/01/18 05:03:36;;;;;;;;;;;;;;;7.37;71.19;98185.53;5372097;32;34219;-67
2024/01/18 05:06:45;;;;;;;;;;;;;;;7.33;71.25;98190.09;5357606;32;34283;-67
2024/01/18 05:10:03;;;;;;;;;;;;;;;7.21;71.99;98198.66;5357872;32;35086;-66
2024/01/18 05:13:06;;;;;;;;;;;;;;;7.39;71.07;98192.34;5363386;32;34413;-68
2024/01/18 05:16:08;;;;;;;;;;;;;;;7.26;72.29;98184.41;5358860;32;34155;-75
2024/01/18 05:19:11;;;;;;;;;;;;;;;7.63;71.52;98183.94;5380251;32;35264;-76
2024/01/18 05:22:13;;;;;;;;;;;;;;;7.37;71.71;98185.53;5365297;32;34460;-68
2024/01/18 05:25:15;;;;;;;;;;;;;;;7.70;71.14;98188.69;5372211;32;34437;-67
2024/01/18 05:28:17;;;;;;;;;;;;;;;7.61;71.57;98178.81;5375647;32;35218;-67
2024/01/18 05:31:19;;;;;;;;;;;;;;;7.81;71.15;98188.84;5370075;32;34654;-67
2024/01/18 05:34:21;;;;;;;;;;;;;;;7.78;71.12;98196.88;5378487;32;35024;-68
2024/01/18 05:37:23;;;;;;;;;;;;;;;7.76;71.72;98188.28;5370213;32;34498;-75
2024/01/18 05:40:29;;;;;;;;;;;;;;;8.07;70.76;98184.59;5370911;32;35466;-75
2024/01/18 05:43:58;;;;;;;;;;;;;;;7.94;71.67;98188.94;5369916;32;34829;-67
2024/01/18 05:47:15;;;;;;;;;;;;;;;7.99;71.40;98189.47;5356948;32;35297;-66
2024/01/18 05:50:18;;;;;;;;;;;;;;;8.41;70.19;98185.91;5361638;32;35655;-66
2024/01/18 05:53:20;;;;;;;;;;;;;;;8.43;70.23;98182.34;5344336;32;35213;-67
2024/01/18 05:56:22;;;;;;;;;;;;;;;8.57;69.95;98182.28;5356827;32;35043;-73
2024/01/18 05:59:34;;;;;;;;;;;;;;;8.43;70.06;98185.78;5359243;32;35372;-76
2024/01/18 06:02:43;;;;;;;;;;;;;;;8.42;70.12;98184.12;5358017;32;34426;-75
2024/01/18 06:05:45;;;;;;;;;;;;;;;8.69;69.59;98184.06;5367929;32;34790;-75
2024/01/18 06:08:48;;;;;;;;;;;;;;;8.52;69.80;98187.81;5355856;32;34735;-76
2024/01/18 06:11:50;;;;;;;;;;;;;;;8.55;69.98;98186.78;5363169;32;35394;-76
2024/01/18 06:14:52;;;;;;;;;;;;;;;8.61;69.99;98194.22;5369662;32;34778;-67
2024/01/18 06:17:54;;;;;;;;;;;;;;;8.72;69.87;98196.16;5373886;32;35186;-75
2024/01/18 06:20:58;;;;;;;;;;;;;;;8.77;69.61;98194.06;5354827;32;35019;-78
2024/01/18 06:24:01;;;;;;;;;;;;;;;8.58;70.37;98192.66;5369877;32;34781;-67
2024/01/18 06:27:03;;;;;;;;;;;;;;;8.57;70.44;98184.91;5358296;32;35255;-67
2024/01/18 06:30:10;;;;;;;;;;;;;;;8.78;69.82;98183.47;5355729;32;34964;-67
2024/01/18 06:33:12;;;;;;;;;;;;;;;8.93;69.68;98184.22;5379514;32;34807;-66
2024/01/18 06:36:15;;;;;;;;;;;;;;;8.66;70.38;98200.84;5362803;32;35739;-76
2024/01/18 06:39:17;;;;;;;;;;;;;;;8.71;70.33;98197.94;5361437;32;35072;-75
2024/01/18 06:42:19;;;;;;;;;;;;;;;8.77;70.32;98196.69;5355174;32;34977;-67
2024/01/18 06:45:21;;;;;;;;;;;;;;;9.00;69.78;98195.97;5355051;32;35090;-80
2024/01/18 06:48:23;;;;;;;;;;;;;;;8.90;70.25;98194.94;5353721;32;34759;-77
2024/01/18 06:51:25;;;;;;;;;;;;;;;8.84;70.60;98204.03;5370917;32;34404;-70
2024/01/18 06:54:27;;;;;;;;;;;;;;;8.94;70.30;98188.50;5369695;32;34319;-68
2024/01/18 06:57:29;;;;;;;;;;;;;;;9.20;70.01;98184.12;5363692;32;35495;-84
2024/01/18 07:00:32;;;;;;;;;;;;;;;9.06;70.44;98194.72;5356102;32;34127;-72
2024/01/18 07:03:35;;;;;;;;;;;;;;;9.10;70.49;98193.59;5349769;32;34437;-71
2024/01/18 07:06:37;;;;;;;;;;;;;;;9.14;70.41;98198.50;5365494;32;34690;-67
2024/01/18 07:09:40;;;;;;;;;;;;;;;8.82;71.09;98207.66;5355603;32;35283;-65
2024/01/18 07:12:43;;;;;;;;;;;;;;;8.99;70.81;98210.00;5370052;32;35646;-69
2024/01/18 07:15:45;;;;;;;;;;;;;;;8.60;72.23;98196.00;5350707;32;35092;-73
2024/01/18 07:18:48;;;;;;;;;;;;;;;9.10;70.83;98193.59;5367288;32;34709;-73
2024/01/18 07:21:50;;;;;;;;;;;;;;;8.04;74.43;98200.47;5345330;32;34301;-72
2024/01/18 07:24:52;;;;;;;;;;;;;;;8.95;71.85;98192.81;5367775;32;34748;-70
2024/01/18 07:27:54;;;;;;;;;;;;;;;9.15;71.00;98189.72;5365917;32;35136;-73
2024/01/18 07:30:57;;;;;;;;;;;;;;;8.74;72.30;98202.94;5371353;32;36977;-74
2024/01/18 07:33:59;;;;;;;;;;;;;;;8.63;72.87;98206.28;5368449;32;35422;-74
2024/01/18 07:37:01;;;;;;;;;;;;;;;8.93;72.26;98203.41;5349162;32;35691;-70
2024/01/18 07:40:03;;;;;;;;;;;;;;;9.11;71.48;98210.97;5353717;32;34918;-71
2024/01/18 07:43:06;;;;;;;;;;;;;;;9.26;71.17;98214.34;5375909;32;35353;-69
2024/01/18 07:46:07;;;;;;;;;;;;;;;9.56;69.93;98214.84;5357846;32;34120;-72
2024/01/18 07:49:09;;;;;;;;;;;;;;;9.63;68.41;98216.09;5353828;32;35872;-68
2024/01/18 07:52:14;;;;;;;;;;;;;;;8.79;71.55;98234.09;5373829;32;35667;-75
2024/01/18 07:55:16;;;;;;;;;;;;;;;8.09;76.14;98235.03;5351030;32;34816;-65
2024/01/18 07:58:23;;;;;;;;;;;;;;;8.11;76.61;98235.78;5365186;32;36053;-64
2024/01/18 08:01:25;;;;;;;;;;;;;;;8.61;75.16;98229.09;5358774;32;34141;-71
2024/01/18 08:04:29;;;;;;;;;;;;;;;8.38;75.32;98233.22;5348734;32;35538;-66
2024/01/18 08:07:31;;;;;;;;;;;;;;;8.92;73.54;98225.31;5363579;32;35820;-69
2024/01/18 08:10:33;;;;;;;;;;;;;;;9.08;70.71;98229.50;5353510;32;34283;-68
2024/01/18 08:13:35;;;;;;;;;;;;;;;9.17;70.21;98229.75;5372058;32;35587;-67
2024/01/18 08:16:39;;;;;;;;;;;;;;;8.21;73.64;98235.19;5354788;32;34194;-68
2024/01/18 08:19:42;;;;;;;;;;;;;;;8.67;72.55;98228.69;5372852;32;34396;-68
2024/01/18 08:22:44;;;;;;;;;;;;;;;7.95;76.23;98226.38;5369593;32;36746;-71
2024/01/18 08:25:46;;;;;;;;;;;;;;;8.41;75.33;98230.41;5368238;32;34554;-69
2024/01/18 08:28:48;;;;;;;;;;;;;;;8.94;73.53;98230.44;5352539;32;34822;-67
2024/01/18 08:31:51;;;;;;;;;;;;;;;8.77;73.95;98235.97;5367343;32;34143;-73
2024/01/18 08:34:53;;;;;;;;;;;;;;;8.68;74.58;98232.16;5370049;32;34267;-74
2024/01/18 08:37:56;;;;;;;;;;;;;;;8.41;75.79;98233.00;5368030;32;34219;-83
2024/01/18 08:40:58;;;;;;;;;;;;;;;8.83;73.35;98236.41;5371958;32;33342;-66
2024/01/18 08:44:03;;;;;;;;;;;;;;;8.94;72.79;98231.28;5365616;32;34351;-78
2024/01/18 08:47:04;;;;;;;;;;;;;;;8.99;74.19;98246.69;5367985;32;34531;-66
2024/01/18 08:50:06;;;;;;;;;;;;;;;8.38;74.57;98243.69;5368653;32;35442;-67
2024/01/18 08:53:08;;;;;;;;;;;;;;;9.13;72.92;98246.59;5353645;32;34055;-65
2024/01/18 08:56:12;;;;;;;;;;;;;;;9.88;68.65;98235.38;5371184;32;34191;-77
2024/01/18 08:59:15;;;;;;;;;;;;;;;9.64;69.18;98243.16;5369607;32;34372;-70
2024/01/18 09:02:17;;;;;;;;;;;;;;;9.32;70.68;98246.22;5370747;32;34367;-74
2024/01/18 09:05:25;;;;;;;;;;;;;;;9.26;72.37;98257.09;5363189;32;33154;-81
2024/01/18 09:08:29;;;;;;;;;;;;;;;8.97;72.77;98260.84;5369530;32;34229;-75
2024/01/18 09:11:31;;;;;;;;;;;;;;;8.54;75.18;98268.88;5369662;32;34305;-67
2024/01/18 09:14:34;;;;;;;;;;;;;;;8.77;74.31;98267.41;5368357;32;35031;-71
2024/01/18 09:17:36;;;;;;;;;;;;;;;8.89;75.33;98264.81;5369030;32;35795;-71
2024/01/18 09:20:38;;;;;;;;;;;;;;;9.03;74.51;98268.31;5367347;32;34243;-71
2024/01/18 09:23:40;;;;;;;;;;;;;;;9.32;73.55;98264.56;5369420;32;34253;-71
2024/01/18 09:26:42;;;;;;;;;;;;;;;9.82;70.57;98262.87;5351380;32;37151;-75
2024/01/18 09:29:44;;;;;;;;;;;;;;;8.64;74.25;98262.97;5356982;32;34224;-75
2024/01/18 09:32:47;;;;;;;;;;;;;;;9.08;74.39;98253.97;5373561;32;34431;-82
2024/01/18 09:35:52;;;;;;;;;;;;;;;9.72;72.10;98241.72;5353100;32;34800;-79
2024/01/18 09:38:54;;;;;;;;;;;;;;;9.89;71.85;98260.66;5370356;32;35347;-80
2024/01/18 09:41:56;;;;;;;;;;;;;;;9.61;71.83;98256.50;5365186;32;34516;-71
2024/01/18 09:45:07;;;;;;;;;;;;;;;8.34;76.35;98260.50;5354294;32;34762;-86
2024/01/18 09:48:09;;;;;;;;;;;;;;;8.39;79.08;98255.00;5357792;32;34544;-74
2024/01/18 09:51:12;;;;;;;;;;;;;;;9.54;73.31;98253.47;5367511;32;34959;-68
2024/01/18 09:54:14;;;;;;;;;;;;;;;9.88;71.25;98244.09;5368965;32;34222;-75
2024/01/18 09:57:17;;;;;;;;;;;;;;;10.03;69.50;98244.78;5363062;32;35463;-69
2024/01/18 10:00:19;;;;;;;;;;;;;;;8.84;75.19;98234.63;5354979;32;34627;-69
2024/01/18 10:03:21;;;;;;;;;;;;;;;9.26;75.04;98235.31;5355785;32;34818;-69
2024/01/18 10:06:23;;;;;;;;;;;;;;;9.15;74.40;98226.41;5365794;32;35288;-76
2024/01/18 10:09:28;;;;;;;;;;;;;;;8.62;76.91;98222.91;5371594;32;34188;-77
2024/01/18 10:12:31;;;;;;;;;;;;;;;9.69;73.15;98225.34;5356098;32;34147;-65
2024/01/18 10:15:33;;;;;;;;;;;;;;;9.91;72.60;98238.59;5370482;32;35473;-75
2024/01/18 10:18:35;;;;;;;;;;;;;;;9.93;72.06;98220.16;5364315;32;33573;-70
2024/01/18 10:21:37;;;;;;;;;;;;;;;9.51;73.53;98214.31;5370171;32;33959;-81
2024/01/18 10:24:40;;;;;;;;;;;;;;;9.44;74.86;98223.56;5367957;32;34584;-74
2024/01/18 10:27:42;;;;;;;;;;;;;;;9.78;73.66;98224.69;5371517;32;34838;-67
2024/01/18 10:30:44;;;;;;;;;;;;;;;10.30;72.35;98214.00;5369547;32;37190;-67
2024/01/18 10:33:46;;;;;;;;;;;;;;;9.34;75.72;98212.00;5353559;32;35422;-70
2024/01/18 10:36:49;;;;;;;;;;;;;;;9.58;75.71;98218.19;5373588;32;35252;-67
2024/01/18 10:39:51;;;;;;;;;;;;;;;9.75;74.45;98204.75;5368919;32;35380;-77
2024/01/18 10:42:56;;;;;;;;;;;;;;;10.35;71.23;98202.28;5373104;32;34524;-65
2024/01/18 10:45:58;;;;;;;;;;;;;;;10.92;68.60;98198.94;5356914;32;34500;-78
2024/01/18 10:49:01;;;;;;;;;;;;;;;10.51;70.04;98197.63;5356417;32;36578;-81
2024/01/18 10:52:05;;;;;;;;;;;;;;;9.78;72.59;98207.16;5356248;32;34237;-71
2024/01/18 10:55:08;;;;;;;;;;;;;;;10.00;72.55;98214.34;5368525;32;35092;-73
2024/01/18 10:58:10;;;;;;;;;;;;;;;9.61;73.90;98220.62;5373294;32;35448;-82
2024/01/18 11:01:12;;;;;;;;;;;;;;;9.36;75.59;98221.47;5369364;32;34581;-70
2024/01/18 11:04:15;;;;;;;;;;;;;;;9.35;75.82;98214.56;5345306;32;34814;-77
2024/01/18 11:07:17;;;;;;;;;;;;;;;9.15;76.41;98213.28;5353536;32;37933;-77
2024/01/18 11:10:20;;;;;;;;;;;;;;;9.58;76.72;98205.09;5357148;32;34286;-72
2024/01/18 11:13:22;;;;;;;;;;;;;;;8.92;75.76;98224.47;5371681;32;34133;-69
2024/01/18 11:16:24;;;;;;;;;;;;;;;9.73;75.12;98209.28;5363779;32;35821;-67
2024/01/18 11:19:40;;;;;;;;;;;;;;;9.67;73.26;98209.72;5373706;32;36084;-74
2024/01/18 11:22:42;;;;;;;;;;;;;;;8.89;76.95;98206.34;5360879;32;34407;-79
2024/01/18 11:25:44;;;;;;;;;;;;;;;8.50;78.61;98217.63;5358299;32;35359;-78
2024/01/18 11:28:46;;;;;;;;;;;;;;;9.58;73.36;98220.81;5373341;32;34777;-65
2024/01/18 11:31:50;;;;;;;;;;;;;;;9.58;73.72;98199.00;5371480;32;34161;-67
2024/01/18 11:35:09;;;;;;;;;;;;;;;9.98;73.43;98190.03;5374268;32;35305;-69
2024/01/18 11:38:18;;;;;;;;;;;;;;;9.13;76.39;98191.56;5371433;32;34166;-77
2024/01/18 11:41:26;;;;;;;;;;;;;;;8.38;77.80;98187.87;5361891;32;35325;-67
2024/01/18 11:44:30;;;;;;;;;;;;;;;9.31;76.88;98192.09;5355300;32;35610;-68
2024/01/18 11:47:32;;;;;;;;;;;;;;;8.59;78.30;98188.25;5358311;32;35424;-84
2024/01/18 11:50:35;;;;;;;;;;;;;;;9.70;75.18;98190.28;5377821;32;33580;-66
2024/01/18 11:53:39;;;;;;;;;;;;;;;8.62;75.12;98191.50;5369816;32;35439;-74
2024/01/18 11:56:41;;;;;;;;;;;;;;;8.57;80.00;98184.91;5368422;32;34264;-76
2024/01/18 11:59:44;;;;;;;;;;;;;;;9.21;74.37;98186.66;5354763;32;37549;-69
2024/01/18 12:02:46;;;;;;;;;;;;;;;9.68;73.51;98184.31;5357430;32;37005;-65
2024/01/18 12:05:48;;;;;;;;;;;;;;;8.41;80.03;98188.50;5373802;32;34309;-79
2024/01/18 12:08:50;;;;;;;;;;;;;;;9.19;76.51;98187.69;5365500;32;35433;-68
2024/01/18 12:11:55;;;;;;;;;;;;;;;9.04;76.56;98191.38;5367748;32;34157;-68
2024/01/18 12:14:57;;;;;;;;;;;;;;;9.23;76.97;98183.94;5352318;32;35653;-79
2024/01/18 12:17:59;;;;;;;;;;;;;;;9.03;77.00;98171.34;5345012;32;36006;-80
2024/01/18 12:21:04;;;;;;;;;;;;;;;9.56;75.46;98170.28;5354777;32;34465;-71
2024/01/18 12:24:07;;;;;;;;;;;;;;;9.96;73.39;98172.69;5372048;32;34337;-83
2024/01/18 12:27:09;;;;;;;;;;;;;;;10.27;70.66;98164.31;5369145;32;35459;-70
2024/01/18 12:30:11;;;;;;;;;;;;;;;10.07;71.96;98164.87;5353885;32;35441;-77
2024/01/18 12:33:14;;;;;;;;;;;;;;;9.22;74.42;98170.00;5359117;32;35530;-69
2024/01/18 12:36:17;;;;;;;;;;;;;;;9.05;75.54;98162.44;5367271;32;35167;-74
2024/01/18 12:39:19;;;;;;;;;;;;;;;9.24;74.57;98159.41;5353150;32;33220;-71
2024/01/18 12:42:21;;;;;;;;;;;;;;;9.85;73.75;98170.00;5365984;32;34133;-84
2024/01/18 12:45:24;;;;;;;;;;;;;;;8.78;76.76;98177.41;5368049;32;34294;-67
2024/01/18 12:48:27;;;;;;;;;;;;;;;9.12;76.47;98168.09;5369827;32;34381;-69
2024/01/18 12:51:31;;;;;;;;;;;;;;;8.68;78.33;98177.16;5341632;32;34816;-76
2024/01/18 12:54:33;;;;;;;;;;;;;;;8.49;79.11;98169.69;5356653;32;33319;-70
2024/01/18 12:57:35;;;;;;;;;;;;;;;9.82;74.60;98164.97;5353623;32;36981;-74
2024/01/18 13:00:41;;;;;;;;;;;;;;;9.47;74.37;98158.66;5359095;32;35490;-69
2024/01/18 13:03:43;;;;;;;;;;;;;;;9.60;74.43;98166.50;5365127;32;35694;-82
2024/01/18 13:06:45;;;;;;;;;;;;;;;10.09;73.14;98162.97;5363275;32;34357;-74
2024/01/18 13:09:57;;;;;;;;;;;;;;;9.50;74.58;98163.66;5357713;32;35004;-83
2024/01/18 13:13:00;;;;;;;;;;;;;;;9.37;73.35;98175.94;5348207;32;35572;-84
2024/01/18 13:16:03;;;;;;;;;;;;;;;9.83;73.82;98172.72;5346248;32;34332;-67
2024/01/18 13:19:06;;;;;;;;;;;;;;;9.57;73.12;98184.22;5354733;32;34412;-72
2024/01/18 13:22:08;;;;;;;;;;;;;;;9.56;75.75;98185.16;5351065;32;36165;-70
2024/01/18 13:25:12;;;;;;;;;;;;;;;8.72;77.66;98193.53;5359985;32;34263;-82
2024/01/18 13:28:14;;;;;;;;;;;;;;;9.22;77.43;98183.09;5337487;32;35315;-80
2024/01/18 13:31:16;;;;;;;;;;;;;;;9.27;76.50;98200.28;5365150;32;34342;-79
2024/01/18 13:34:21;;;;;;;;;;;;;;;9.52;75.97;98208.13;5356590;32;34067;-63
2024/01/18 13:37:23;;;;;;;;;;;;;;;10.02;73.61;98201.13;5362611;32;36593;-67
2024/01/18 13:40:32;;;;;;;;;;;;;;;10.20;73.14;98196.34;5354618;32;35458;-69
2024/01/18 13:43:34;;;;;;;;;;;;;;;10.15;73.01;98195.84;5364758;32;34304;-66
2024/01/18 13:46:38;;;;;;;;;;;;;;;10.48;71.45;98195.19;5350694;32;35034;-78
2024/01/18 13:49:40;;;;;;;;;;;;;;;9.48;73.40;98214.56;5357162;32;34269;-76
2024/01/18 13:52:42;;;;;;;;;;;;;;;9.10;76.54;98207.53;5354307;32;35587;-72
2024/01/18 13:55:46;;;;;;;;;;;;;;;9.85;74.29;98197.06;5347534;32;34457;-78
2024/01/18 13:58:48;;;;;;;;;;;;;;;9.49;74.97;98211.81;5369410;32;36002;-77
2024/01/18 14:01:50;;;;;;;;;;;;;;;8.74;76.92;98207.34;5364795;32;34424;-67
2024/01/18 14:04:52;;;;;;;;;;;;;;;9.66;75.15;98200.16;5368827;32;34021;-70
2024/01/18 14:07:54;;;;;;;;;;;;;;;8.78;78.35;98211.47;5345123;32;34807;-73
2024/01/18 14:10:56;;;;;;;;;;;;;;;9.59;75.50;98196.28;5345101;32;36079;-76
2024/01/18 14:13:58;;;;;;;;;;;;;;;9.59;75.50;98206.75;5363615;32;35063;-75
2024/01/18 14:17:00;;;;;;;;;;;;;;;9.82;74.18;98213.03;5355365;32;35475;-68
2024/01/18 14:20:05;;;;;;;;;;;;;;;9.59;75.24;98219.88;5354820;32;34765;-80
2024/01/18 14:23:07;;;;;;;;;;;;;;;9.35;74.98;98221.59;5366187;32;34836;-73
2024/01/18 14:26:14;;;;;;;;;;;;;;;9.97;73.16;98221.59;5367609;32;35046;-71
2024/01/18 14:29:16;;;;;;;;;;;;;;;9.76;74.04;98231.81;5350481;32;35069;-69
2024/01/18 14:32:18;;;;;;;;;;;;;;;10.04;72.27;98230.72;5367985;32;34405;-70
2024/01/18 14:35:21;;;;;;;;;;;;;;;9.79;71.77;98236.88;5365721;32;35733;-75
2024/01/18 14:38:23;;;;;;;;;;;;;;;9.44;75.31;98227.03;5350675;32;33324;-70
2024/01/18 14:41:25;;;;;;;;;;;;;;;9.00;76.83;98230.03;5372201;32;35412;-68
2024/01/18 14:44:32;;;;;;;;;;;;;;;9.91;73.44;98220.25;5369503;32;35585;-73
2024/01/18 14:47:34;;;;;;;;;;;;;;;10.01;72.02;98221.28;5356895;32;34759;-68
2024/01/18 14:50:37;;;;;;;;;;;;;;;9.67;74.43;98230.69;5356629;32;37037;-72
2024/01/18 14:53:42;;;;;;;;;;;;;;;9.80;73.20;98240.34;5364626;32;34236;-74
2024/01/18 14:56:46;;;;;;;;;;;;;;;9.31;74.87;98243.69;5370048;32;34234;-70
2024/01/18 14:59:49;;;;;;;;;;;;;;;9.29;76.35;98248.22;5349171;32;35487;-68
2024/01/18 15:02:51;;;;;;;;;;;;;;;9.40;75.13;98249.16;5358322;32;36015;-78
2024/01/18 15:05:53;;;;;;;;;;;;;;;9.70;74.60;98250.63;5356204;32;35665;-73
2024/01/18 15:08:55;;;;;;;;;;;;;;;9.34;76.22;98253.97;5359593;32;36667;-70
2024/01/18 15:11:57;;;;;;;;;;;;;;;8.75;77.05;98256.16;5368354;32;34311;-71
2024/01/18 15:14:59;;;;;;;;;;;;;;;8.79;78.37;98258.50;5350740;32;34332;-71
2024/01/18 15:18:01;;;;;;;;;;;;;;;9.01;77.53;98263.16;5365384;32;34491;-69
2024/01/18 15:21:05;;;;;;;;;;;;;;;9.02;77.30;98270.09;5358978;32;34207;-69
2024/01/18 15:24:07;;;;;;;;;;;;;;;8.37;80.12;98280.41;5346001;32;35452;-71
2024/01/18 15:27:09;;;;;;;;;;;;;;;8.27;81.88;98276.69;5357859;32;33865;-71
2024/01/18 15:30:12;;;;;;;;;;;;;;;8.35;81.53;98269.19;5362234;32;35388;-70
2024/01/18 15:33:14;;;;;;;;;;;;;;;8.93;80.22;98281.16;5371428;32;34529;-70
2024/01/18 15:36:17;;;;;;;;;;;;;;;9.40;76.53;98285.87;5365522;32;34871;-71
2024/01/18 15:39:20;;;;;;;;;;;;;;;8.99;77.16;98296.47;5374716;32;34476;-71
2024/01/18 15:42:22;;;;;;;;;;;;;;;8.17;80.96;98292.09;5369029;32;34213;-71
2024/01/18 15:45:24;;;;;;;;;;;;;;;8.33;80.41;98284.16;5372772;32;34944;-71
2024/01/18 15:48:29;;;;;;;;;;;;;;;8.68;80.09;98279.28;5370216;32;34889;-69
2024/01/18 15:51:33;;;;;;;;;;;;;;;9.03;76.83;98284.88;5357887;32;36304;-71
2024/01/18 15:54:35;;;;;;;;;;;;;;;9.27;74.90;98298.09;5375285;32;35165;-70
2024/01/18 15:57:37;;;;;;;;;;;;;;;8.32;78.33;98295.56;5370880;32;34508;-70
2024/01/18 16:00:40;;;;;;;;;;;;;;;8.07;82.04;98286.63;5372295;32;35126;-72
2024/01/18 16:03:42;;;;;;;;;;;;;;;8.40;79.44;98288.09;5367099;32;35366;-70
2024/01/18 16:06:45;;;;;;;;;;;;;;;8.78;77.57;98298.72;5370922;32;35437;-70